createdAt,value
2022-09-14T00:01:21.178Z,0.82
2022-09-14T00:03:43.051Z,0.57
2022-09-14T00:06:13.870Z,1.17
2022-09-14T00:08:42.942Z,0.60
2022-09-14T00:11:12.629Z,0.50
2022-09-14T00:13:41.008Z,0.60
2022-09-14T00:16:12.427Z,0.70
2022-09-14T00:18:38.889Z,0.90
2022-09-14T00:21:08.198Z,0.70
2022-09-14T00:23:36.288Z,0.90
2022-09-14T00:26:08.253Z,0.60
2022-09-14T00:29:04.613Z,0.68
2022-09-14T00:31:38.007Z,0.70
2022-09-14T00:34:06.529Z,0.93
2022-09-14T00:36:37.171Z,1.10
2022-09-14T00:39:03.938Z,1.13
2022-09-14T00:41:34.862Z,1.38
2022-09-14T00:44:07.791Z,0.80
2022-09-14T00:46:48.172Z,0.65
2022-09-14T00:49:17.086Z,0.80
2022-09-14T00:52:04.000Z,0.57
2022-09-14T00:54:31.684Z,0.68
2022-09-14T00:57:01.372Z,0.82
2022-09-14T00:59:32.428Z,0.80
2022-09-14T01:01:58.907Z,0.80
2022-09-14T01:04:25.334Z,1.83
2022-09-14T01:07:06.916Z,1.17
2022-09-14T01:10:02.751Z,1.42
2022-09-14T01:12:40.468Z,0.90
2022-09-14T01:15:32.783Z,1.00
2022-09-14T01:18:18.515Z,0.50
2022-09-14T01:21:03.573Z,0.73
2022-09-14T01:23:54.667Z,0.70
2022-09-14T01:26:44.559Z,1.10
2022-09-14T01:29:38.801Z,0.80
2022-09-14T01:32:25.640Z,0.85
2022-09-14T01:34:55.790Z,0.80
2022-09-14T01:37:26.495Z,0.82
2022-09-14T01:40:03.671Z,0.80
2022-09-14T01:42:31.913Z,0.77
2022-09-14T01:45:02.229Z,0.95
2022-09-14T01:47:41.014Z,0.82
2022-09-14T01:50:15.144Z,1.42
2022-09-14T01:52:53.243Z,0.98
2022-09-14T01:55:32.750Z,0.70
2022-09-14T01:58:08.300Z,0.82
2022-09-14T02:00:39.479Z,0.80
2022-09-14T02:03:12.698Z,1.10
2022-09-14T02:05:49.715Z,0.70
2022-09-14T02:08:16.553Z,0.70
2022-09-14T02:10:43.476Z,1.00
2022-09-14T02:13:10.090Z,0.70
2022-09-14T02:15:37.390Z,0.60
2022-09-14T02:18:04.693Z,1.10
2022-09-14T02:20:56.089Z,1.00
2022-09-14T02:23:23.095Z,1.05
2022-09-14T02:25:49.973Z,0.98
2022-09-14T02:28:16.747Z,0.68
2022-09-14T02:31:03.211Z,0.70
2022-09-14T02:33:41.609Z,0.60
2022-09-14T02:36:17.066Z,0.98
2022-09-14T02:39:01.194Z,0.70
2022-09-14T02:41:42.101Z,1.02
2022-09-14T02:44:25.405Z,0.70
2022-09-14T02:47:19.862Z,0.80
2022-09-14T02:50:12.110Z,0.90
2022-09-14T02:53:20.841Z,0.80
2022-09-14T02:56:03.116Z,0.75
2022-09-14T02:58:40.735Z,1.02
2022-09-14T03:01:12.959Z,0.70
2022-09-14T03:03:39.594Z,0.70
2022-09-14T03:06:06.532Z,0.70
2022-09-14T03:08:33.356Z,0.70
2022-09-14T03:10:59.806Z,0.63
2022-09-14T03:13:26.226Z,0.70
2022-09-14T03:15:53.561Z,0.90
2022-09-14T03:18:20.466Z,0.88
2022-09-14T03:20:46.918Z,0.63
2022-09-14T03:23:14.568Z,0.85
2022-09-14T03:25:43.454Z,1.13
2022-09-14T03:28:11.510Z,0.85
2022-09-14T03:30:37.962Z,1.10
2022-09-14T03:33:04.504Z,0.85
2022-09-14T03:35:31.779Z,0.80
2022-09-14T03:37:59.710Z,1.00
2022-09-14T03:40:27.234Z,1.20
2022-09-14T03:42:54.049Z,0.90
2022-09-14T03:45:21.778Z,0.80
2022-09-14T03:47:49.181Z,0.70
2022-09-14T03:50:17.193Z,0.77
2022-09-14T03:52:43.937Z,1.10
2022-09-14T03:55:11.015Z,0.80
2022-09-14T03:57:37.533Z,1.00
2022-09-14T04:00:05.974Z,0.70
2022-09-14T04:02:32.462Z,0.90
2022-09-14T04:04:58.955Z,0.85
2022-09-14T04:07:25.518Z,1.00
2022-09-14T04:09:51.933Z,0.93
2022-09-14T04:12:18.338Z,1.23
2022-09-14T04:14:44.821Z,1.27
2022-09-14T04:17:11.201Z,1.15
2022-09-14T04:19:38.549Z,1.50
2022-09-14T04:22:05.359Z,1.45
2022-09-14T04:24:31.832Z,2.10
2022-09-14T04:26:58.328Z,1.57
2022-09-14T04:29:25.148Z,1.60
2022-09-14T04:31:51.577Z,1.92
2022-09-14T04:34:17.988Z,1.80
2022-09-14T04:36:44.421Z,1.83
2022-09-14T04:39:13.690Z,1.93
2022-09-14T04:41:40.788Z,1.80
2022-09-14T04:44:07.181Z,1.90
2022-09-14T04:46:37.544Z,1.90
2022-09-14T04:49:06.592Z,1.67
2022-09-14T04:51:35.165Z,2.20
2022-09-14T04:54:03.475Z,1.90
2022-09-14T04:56:32.629Z,1.70
2022-09-14T04:59:00.529Z,2.08
2022-09-14T05:01:29.443Z,2.25
2022-09-14T05:03:56.684Z,1.90
2022-09-14T05:06:29.180Z,1.80
2022-09-14T05:08:56.658Z,1.60
2022-09-14T05:11:25.546Z,1.35
2022-09-14T05:13:52.298Z,1.50
2022-09-14T05:16:21.652Z,1.20
2022-09-14T05:18:49.166Z,1.33
2022-09-14T05:21:17.854Z,1.13
2022-09-14T05:23:45.233Z,1.23
2022-09-14T05:26:12.269Z,1.58
2022-09-14T05:28:39.170Z,1.50
2022-09-14T05:31:07.348Z,1.40
2022-09-14T05:33:34.847Z,1.30
2022-09-14T05:36:06.576Z,1.50
2022-09-14T05:38:35.616Z,1.80
2022-09-14T05:41:02.518Z,1.90
2022-09-14T05:43:30.528Z,1.80
2022-09-14T05:46:02.498Z,1.77
2022-09-14T05:48:33.049Z,1.60
2022-09-14T05:51:00.857Z,1.50
2022-09-14T05:53:28.272Z,2.00
2022-09-14T05:56:09.346Z,1.95
2022-09-14T05:58:37.184Z,1.80
2022-09-14T06:01:15.394Z,1.73
2022-09-14T06:03:42.698Z,1.85
2022-09-14T06:06:12.439Z,1.80
2022-09-14T06:08:39.789Z,1.65
2022-09-14T06:11:17.509Z,1.85
2022-09-14T06:13:44.552Z,1.92
2022-09-14T06:16:16.547Z,1.60
2022-09-14T06:18:44.445Z,1.90
2022-09-14T06:21:15.226Z,1.90
2022-09-14T06:23:42.037Z,1.85
2022-09-14T06:26:09.025Z,2.15
2022-09-14T06:28:36.023Z,1.98
2022-09-14T06:31:04.501Z,1.93
2022-09-14T06:33:31.995Z,1.70
2022-09-14T06:36:04.468Z,2.10
2022-09-14T06:38:31.148Z,1.95
2022-09-14T06:41:00.396Z,2.20
2022-09-14T06:43:29.300Z,2.37
2022-09-14T06:46:01.320Z,2.28
2022-09-14T06:48:29.832Z,2.08
2022-09-14T06:50:56.539Z,2.38
2022-09-14T06:53:23.136Z,2.28
2022-09-14T06:55:49.689Z,2.27
2022-09-14T06:58:16.105Z,2.58
2022-09-14T07:00:42.700Z,2.20
2022-09-14T07:03:09.195Z,2.35
2022-09-14T07:05:35.842Z,2.25
2022-09-14T07:08:02.403Z,2.30
2022-09-14T07:10:28.901Z,2.42
2022-09-14T07:12:55.437Z,2.30
2022-09-14T07:15:22.401Z,2.55
2022-09-14T07:17:48.856Z,2.33
2022-09-14T07:20:15.738Z,2.20
2022-09-14T07:22:42.519Z,2.30
2022-09-14T07:25:09.984Z,2.50
2022-09-14T07:27:39.404Z,2.40
2022-09-14T07:30:07.929Z,2.28
2022-09-14T07:32:34.427Z,2.17
2022-09-14T07:35:01.011Z,2.15
2022-09-14T07:37:29.306Z,2.40
2022-09-14T07:39:57.311Z,2.00
2022-09-14T07:42:23.889Z,2.17
2022-09-14T07:44:50.623Z,2.25
2022-09-14T07:47:17.110Z,1.85
2022-09-14T07:49:43.555Z,1.73
2022-09-14T07:52:11.272Z,1.70
2022-09-14T07:54:37.916Z,1.75
2022-09-14T07:57:04.334Z,1.88
2022-09-14T07:59:38.479Z,1.67
2022-09-14T08:02:07.414Z,2.10
2022-09-14T08:04:35.970Z,1.77
2022-09-14T08:07:02.685Z,1.73
2022-09-14T08:09:29.271Z,2.13
2022-09-14T08:11:56.088Z,1.63
2022-09-14T08:14:22.800Z,1.67
2022-09-14T08:16:49.939Z,1.63
2022-09-14T08:19:20.352Z,1.58
2022-09-14T08:21:47.866Z,1.60
2022-09-14T08:24:17.379Z,1.60
2022-09-14T08:26:43.884Z,1.27
2022-09-14T08:29:12.549Z,1.25
2022-09-14T08:31:40.161Z,1.50
2022-09-14T08:34:07.129Z,1.20
2022-09-14T08:36:36.549Z,1.40
2022-09-14T08:39:04.324Z,1.40
2022-09-14T08:41:51.868Z,1.50
2022-09-14T08:44:26.156Z,1.33
2022-09-14T08:47:07.130Z,1.70
2022-09-14T08:49:52.312Z,1.23
2022-09-14T08:52:24.823Z,1.57
2022-09-14T08:54:55.138Z,1.67
2022-09-14T08:57:39.357Z,1.30
2022-09-14T09:00:16.722Z,1.52
2022-09-14T09:03:09.223Z,1.50
2022-09-14T09:05:56.874Z,1.80
2022-09-14T09:08:42.049Z,1.70
2022-09-14T09:11:16.954Z,2.05
2022-09-14T09:13:45.968Z,1.33
2022-09-14T09:16:16.800Z,1.60
2022-09-14T09:18:49.483Z,1.70
2022-09-14T09:21:18.821Z,1.20
2022-09-14T09:23:45.469Z,1.33
2022-09-14T09:26:30.914Z,1.48
2022-09-14T09:29:02.832Z,1.70
2022-09-14T09:31:47.488Z,1.20
2022-09-14T09:34:16.262Z,1.65
2022-09-14T09:36:49.547Z,1.45
2022-09-14T09:39:17.216Z,1.73
2022-09-14T09:41:49.191Z,1.30
2022-09-14T09:44:16.143Z,1.50
2022-09-14T09:46:50.336Z,1.50
2022-09-14T09:49:34.925Z,1.30
2022-09-14T09:52:10.378Z,1.10
2022-09-14T09:54:39.805Z,1.20
2022-09-14T09:57:31.306Z,1.40
2022-09-14T10:00:11.304Z,1.77
2022-09-14T10:02:37.809Z,1.30
2022-09-14T10:05:10.733Z,1.30
2022-09-14T10:07:42.485Z,1.60
2022-09-14T10:10:14.725Z,1.43
2022-09-14T10:12:48.270Z,1.55
2022-09-14T10:15:21.563Z,1.88
2022-09-14T10:18:07.684Z,1.70
2022-09-14T10:20:35.366Z,1.67
2022-09-14T10:23:20.199Z,1.90
2022-09-14T10:25:51.524Z,1.50
2022-09-14T10:28:32.693Z,1.55
2022-09-14T10:31:08.900Z,1.48
2022-09-14T10:33:35.347Z,1.23
2022-09-14T10:36:15.690Z,1.50
2022-09-14T10:39:02.057Z,1.40
2022-09-14T10:41:55.116Z,1.40
2022-09-14T10:44:33.676Z,1.33
2022-09-14T10:47:21.545Z,1.70
2022-09-14T10:50:02.894Z,1.90
2022-09-14T10:52:52.465Z,2.20
2022-09-14T10:55:43.615Z,1.70
2022-09-14T10:58:18.135Z,1.55
2022-09-14T11:01:23.367Z,2.33
2022-09-14T11:04:06.156Z,1.60
2022-09-14T11:06:54.537Z,1.67
2022-09-14T11:09:42.990Z,1.60
2022-09-14T11:12:25.496Z,1.60
2022-09-14T11:15:27.886Z,1.50
2022-09-14T11:18:09.530Z,1.20
2022-09-14T11:21:17.235Z,1.52
2022-09-14T11:23:58.444Z,1.40
2022-09-14T11:26:31.625Z,1.60
2022-09-14T11:29:26.447Z,1.50
2022-09-14T11:32:19.920Z,1.10
2022-09-14T11:34:56.045Z,1.48
2022-09-14T11:37:35.647Z,1.48
2022-09-14T11:40:10.128Z,1.30
2022-09-14T11:42:44.243Z,1.50
2022-09-14T11:45:25.941Z,1.20
2022-09-14T11:48:38.268Z,1.30
2022-09-14T11:51:19.248Z,1.40
2022-09-14T11:53:46.867Z,1.48
2022-09-14T11:56:33.931Z,1.30
2022-09-14T11:59:04.451Z,1.40
2022-09-14T12:01:40.634Z,1.50
2022-09-14T12:04:09.596Z,1.30
2022-09-14T12:06:36.025Z,1.88
2022-09-14T12:09:17.474Z,1.70
2022-09-14T12:11:45.537Z,1.63
2022-09-14T12:14:23.836Z,1.50
2022-09-14T12:17:38.924Z,1.50
2022-09-14T12:20:36.617Z,1.50
2022-09-14T12:23:21.050Z,1.35
2022-09-14T12:26:05.966Z,1.10
2022-09-14T12:28:35.418Z,0.70
2022-09-14T12:31:02.835Z,1.27
2022-09-14T12:33:35.051Z,0.95
2022-09-14T12:36:02.677Z,0.98
2022-09-14T12:38:29.059Z,0.90
2022-09-14T12:40:58.400Z,0.90
2022-09-14T12:43:34.148Z,0.93
2022-09-14T12:46:31.425Z,1.10
2022-09-14T12:49:16.898Z,0.98
2022-09-14T12:51:48.196Z,1.10
2022-09-14T12:54:26.061Z,0.80
2022-09-14T12:57:07.416Z,1.38
2022-09-14T12:59:57.217Z,1.20
2022-09-14T13:02:43.274Z,1.10
2022-09-14T13:05:17.054Z,1.10
2022-09-14T13:07:44.383Z,0.95
2022-09-14T13:10:25.030Z,0.95
2022-09-14T13:12:52.190Z,1.10
2022-09-14T13:15:25.392Z,1.10
2022-09-14T13:18:06.106Z,1.10
2022-09-14T13:20:35.448Z,1.10
2022-09-14T13:23:02.465Z,0.85
2022-09-14T13:25:34.954Z,0.93
2022-09-14T13:28:04.828Z,1.00
2022-09-14T13:30:33.181Z,0.50
2022-09-14T13:33:00.502Z,0.77
2022-09-14T13:35:26.865Z,0.60
2022-09-14T13:37:53.551Z,0.55
2022-09-14T13:40:28.389Z,0.50
2022-09-14T13:42:56.716Z,0.50
2022-09-14T13:45:24.032Z,0.73
2022-09-14T13:47:53.158Z,0.40
2022-09-14T13:50:25.238Z,0.80
2022-09-14T13:53:08.325Z,1.05
2022-09-14T13:55:34.701Z,0.40
2022-09-14T13:58:24.353Z,0.50
2022-09-14T14:01:04.776Z,0.47
2022-09-14T14:03:39.205Z,0.50
2022-09-14T14:06:26.143Z,0.93
2022-09-14T14:08:57.516Z,0.60
2022-09-14T14:11:31.096Z,0.70
2022-09-14T14:14:10.964Z,0.50
2022-09-14T14:16:37.592Z,0.40
2022-09-14T14:19:04.473Z,0.50
2022-09-14T14:21:32.939Z,0.50
2022-09-14T14:24:28.068Z,0.60
2022-09-14T14:26:56.868Z,0.60
2022-09-14T14:29:24.048Z,0.60
2022-09-14T14:31:50.785Z,0.50
2022-09-14T14:34:28.709Z,0.73
2022-09-14T14:36:55.856Z,0.50
2022-09-14T14:39:24.886Z,0.70
2022-09-14T14:41:52.493Z,0.50
2022-09-14T14:44:25.224Z,1.05
2022-09-14T14:46:51.828Z,0.77
2022-09-14T14:49:20.398Z,0.63
2022-09-14T14:51:47.953Z,0.70
2022-09-14T14:54:17.997Z,0.73
2022-09-14T14:56:49.468Z,0.50
2022-09-14T14:59:21.599Z,0.60
2022-09-14T15:01:49.922Z,0.50
2022-09-14T15:04:16.437Z,0.65
2022-09-14T15:06:42.844Z,0.80
2022-09-14T15:09:22.442Z,0.60
2022-09-14T15:11:50.433Z,0.70
2022-09-14T15:14:22.030Z,0.60
2022-09-14T15:16:50.597Z,0.70
2022-09-14T15:19:17.082Z,0.68
2022-09-14T15:21:44.018Z,0.60
2022-09-14T15:24:11.260Z,0.67
2022-09-14T15:26:38.113Z,0.60
2022-09-14T15:29:04.876Z,0.50
2022-09-14T15:31:32.255Z,0.50
2022-09-14T15:33:59.573Z,0.60
2022-09-14T15:36:35.988Z,0.90
2022-09-14T15:39:03.098Z,0.50
2022-09-14T15:41:29.534Z,0.80
2022-09-14T15:43:56.021Z,0.60
2022-09-14T15:46:22.462Z,0.70
2022-09-14T15:48:48.885Z,0.50
2022-09-14T15:51:17.157Z,0.65
2022-09-14T15:53:45.640Z,0.40
2022-09-14T15:56:14.577Z,0.60
2022-09-14T15:58:43.732Z,0.40
2022-09-14T16:01:16.208Z,0.50
2022-09-14T16:03:43.190Z,0.30
2022-09-14T16:06:11.259Z,0.70
2022-09-14T16:08:38.314Z,0.50
2022-09-14T16:11:06.378Z,0.38
2022-09-14T16:13:34.346Z,0.50
2022-09-14T16:16:04.743Z,0.47
2022-09-14T16:18:31.418Z,0.50
2022-09-14T16:21:22.225Z,0.30
2022-09-14T16:23:54.215Z,0.60
2022-09-14T16:26:24.007Z,0.47
2022-09-14T16:28:52.209Z,0.50
2022-09-14T16:31:24.267Z,0.60
2022-09-14T16:33:53.386Z,0.40
2022-09-14T16:36:22.749Z,1.02
2022-09-14T16:38:49.172Z,0.40
2022-09-14T16:41:15.959Z,0.47
2022-09-14T16:43:42.494Z,0.40
2022-09-14T16:46:12.485Z,0.55
2022-09-14T16:48:41.930Z,0.30
2022-09-14T16:51:09.421Z,0.40
2022-09-14T16:53:38.224Z,0.40
2022-09-14T16:56:10.883Z,0.47
2022-09-14T16:58:38.734Z,0.47
2022-09-14T17:01:32.595Z,0.50
2022-09-14T17:04:10.718Z,0.30
2022-09-14T17:06:41.010Z,0.20
2022-09-14T17:09:10.452Z,0.20
2022-09-14T17:11:38.616Z,0.30
2022-09-14T17:14:05.897Z,0.30
2022-09-14T17:16:32.479Z,0.30
2022-09-14T17:19:01.113Z,0.30
2022-09-14T17:21:30.776Z,0.30
2022-09-14T17:23:57.485Z,0.30
2022-09-14T17:26:24.377Z,0.22
2022-09-14T17:28:52.370Z,0.20
2022-09-14T17:31:21.127Z,0.20
2022-09-14T17:33:47.791Z,0.30
2022-09-14T17:36:15.905Z,0.20
2022-09-14T17:38:43.965Z,0.28
2022-09-14T17:41:13.952Z,0.27
2022-09-14T17:43:40.512Z,0.20
2022-09-14T17:46:11.188Z,0.25
2022-09-14T17:48:39.690Z,0.30
2022-09-14T17:51:08.000Z,0.30
2022-09-14T17:53:43.245Z,0.40
2022-09-14T17:56:12.192Z,0.20
2022-09-14T17:58:39.114Z,0.65
2022-09-14T18:01:09.846Z,0.15
2022-09-14T18:03:38.064Z,0.47
2022-09-14T18:06:09.405Z,0.30
2022-09-14T18:08:36.811Z,0.30
2022-09-14T18:11:09.614Z,0.30
2022-09-14T18:13:40.505Z,0.20
2022-09-14T18:16:07.143Z,0.20
2022-09-14T18:18:33.678Z,0.30
2022-09-14T18:21:00.943Z,0.38
2022-09-14T18:23:28.019Z,0.20
2022-09-14T18:25:54.514Z,0.20
2022-09-14T18:28:22.202Z,0.30
2022-09-14T18:30:48.866Z,0.20
2022-09-14T18:33:16.008Z,0.30
2022-09-14T18:35:42.948Z,0.45
2022-09-14T18:38:12.016Z,0.22
2022-09-14T18:40:38.903Z,0.30
2022-09-14T18:43:05.344Z,0.30
2022-09-14T18:45:33.785Z,0.30
2022-09-14T18:48:00.225Z,0.30
2022-09-14T18:50:26.772Z,0.30
2022-09-14T18:52:53.236Z,0.28
2022-09-14T18:55:19.796Z,0.30
2022-09-14T18:57:47.789Z,0.40
2022-09-14T19:00:18.497Z,0.30
2022-09-14T19:02:45.971Z,0.40
2022-09-14T19:05:12.502Z,0.50
2022-09-14T19:07:38.916Z,0.57
2022-09-14T19:10:10.918Z,0.75
2022-09-14T19:12:38.052Z,0.20
2022-09-14T19:15:05.425Z,0.68
2022-09-14T19:17:31.889Z,0.30
2022-09-14T19:19:58.616Z,0.30
2022-09-14T19:22:25.136Z,0.38
2022-09-14T19:24:51.677Z,0.20
2022-09-14T19:27:18.123Z,0.40
2022-09-14T19:29:44.622Z,0.30
2022-09-14T19:32:11.067Z,0.50
2022-09-14T19:34:38.484Z,0.40
2022-09-14T19:37:05.436Z,0.35
2022-09-14T19:39:32.000Z,0.80
2022-09-14T19:41:58.428Z,0.38
2022-09-14T19:44:24.881Z,0.40
2022-09-14T19:46:51.539Z,0.40
2022-09-14T19:49:21.020Z,0.68
2022-09-14T19:51:48.642Z,0.68
2022-09-14T19:54:15.668Z,0.40
2022-09-14T19:56:43.140Z,0.50
2022-09-14T19:59:09.877Z,0.50
2022-09-14T20:01:38.340Z,0.30
2022-09-14T20:04:06.293Z,0.30
2022-09-14T20:06:35.976Z,0.40
2022-09-14T20:09:05.738Z,0.40
2022-09-14T20:11:33.559Z,0.45
2022-09-14T20:14:02.446Z,0.43
2022-09-14T20:16:40.301Z,0.43
2022-09-14T20:19:10.093Z,0.50
2022-09-14T20:21:37.515Z,0.40
2022-09-14T20:24:21.985Z,0.32
2022-09-14T20:26:50.933Z,0.60
2022-09-14T20:29:18.983Z,0.45
2022-09-14T20:31:46.614Z,0.50
2022-09-14T20:34:16.216Z,0.37
2022-09-14T20:36:43.021Z,0.40
2022-09-14T20:39:10.014Z,0.40
2022-09-14T20:41:36.587Z,0.40
2022-09-14T20:44:03.763Z,0.43
2022-09-14T20:46:34.905Z,0.50
2022-09-14T20:49:02.737Z,0.47
2022-09-14T20:51:29.156Z,0.40
2022-09-14T20:53:58.389Z,0.60
2022-09-14T20:56:27.399Z,0.50
2022-09-14T20:58:56.381Z,0.60
2022-09-14T21:01:24.951Z,0.70
2022-09-14T21:03:51.636Z,0.50
2022-09-14T21:06:25.783Z,0.52
2022-09-14T21:08:53.016Z,0.40
2022-09-14T21:11:22.645Z,0.40
2022-09-14T21:13:51.260Z,0.32
2022-09-14T21:16:26.929Z,0.43
2022-09-14T21:18:59.938Z,0.40
2022-09-14T21:21:27.725Z,0.30
2022-09-14T21:23:55.897Z,0.30
2022-09-14T21:26:23.156Z,0.50
2022-09-14T21:28:54.903Z,0.43
2022-09-14T21:31:21.780Z,0.40
2022-09-14T21:33:51.561Z,0.40
2022-09-14T21:36:23.597Z,0.40
2022-09-14T21:38:55.423Z,0.40
2022-09-14T21:41:23.903Z,0.40
2022-09-14T21:43:50.451Z,0.50
2022-09-14T21:46:18.326Z,0.47
2022-09-14T21:48:45.102Z,0.43
2022-09-14T21:51:25.896Z,0.60
2022-09-14T21:53:58.154Z,0.47
2022-09-14T21:56:27.170Z,0.40
2022-09-14T21:58:55.974Z,0.40
2022-09-14T22:01:23.008Z,0.43
2022-09-14T22:03:51.470Z,0.60
2022-09-14T22:06:19.403Z,0.45
2022-09-14T22:08:46.477Z,0.45
2022-09-14T22:11:20.037Z,0.20
2022-09-14T22:13:56.687Z,0.50
2022-09-14T22:16:24.341Z,0.50
2022-09-14T22:18:53.660Z,0.40
2022-09-14T22:21:21.527Z,0.40
2022-09-14T22:23:53.096Z,0.40
2022-09-14T22:26:20.474Z,0.40
2022-09-14T22:28:49.076Z,0.50
2022-09-14T22:31:17.979Z,0.45
2022-09-14T22:33:45.160Z,0.47
2022-09-14T22:36:12.423Z,0.70
2022-09-14T22:38:40.951Z,0.50
2022-09-14T22:41:10.850Z,0.50
2022-09-14T22:43:38.397Z,0.50
2022-09-14T22:46:06.132Z,0.70
2022-09-14T22:48:33.342Z,0.70
2022-09-14T22:51:00.890Z,0.87
2022-09-14T22:53:28.433Z,0.50
2022-09-14T22:55:54.885Z,0.57
2022-09-14T22:58:24.036Z,0.50
2022-09-14T23:00:50.790Z,0.60
2022-09-14T23:03:18.566Z,0.50
2022-09-14T23:05:55.486Z,0.50
2022-09-14T23:08:23.197Z,0.50
2022-09-14T23:10:49.896Z,0.40
2022-09-14T23:13:17.265Z,0.32
2022-09-14T23:15:44.541Z,0.67
2022-09-14T23:18:10.997Z,0.50
2022-09-14T23:20:43.416Z,0.47
2022-09-14T23:23:11.409Z,0.50
2022-09-14T23:25:40.137Z,0.40
2022-09-14T23:28:09.838Z,0.40
2022-09-14T23:30:36.393Z,0.60
2022-09-14T23:33:02.886Z,0.52
2022-09-14T23:35:30.026Z,0.60
2022-09-14T23:37:56.518Z,0.60
2022-09-14T23:40:23.944Z,0.50
2022-09-14T23:42:50.598Z,0.80
2022-09-14T23:45:17.068Z,0.60
2022-09-14T23:47:43.550Z,0.95
2022-09-14T23:50:10.170Z,1.15
2022-09-14T23:52:36.957Z,0.83
2022-09-14T23:55:04.457Z,1.00
2022-09-14T23:57:30.904Z,1.20
2022-09-14T23:59:58.527Z,1.30
